Time;durP1;ratioP1;P1;durP2;ratioP2;P2;SDS_P1;SDS_P2;PMS_P1;PMS_P2;Temp;Humidity;BMP_temperature;BMP_pressure;BME280_temperature;BME280_humidity;BME280_pressure;Samples;Min_cycle;Max_cycle;Signal;HPM_P1;HPM_P2
2021/12/23 00:01:59;;;;;;;18.30;14.77;;;;;;;-0.52;65.76;95906.38;4976143;28;20730;-79
2021/12/23 00:04:25;;;;;;;19.83;14.73;;;;;;;-0.54;65.42;95911.53;4976440;28;20224;-80
2021/12/23 00:06:53;;;;;;;23.10;16.97;;;;;;;-0.62;65.56;95902.84;4976240;28;20203;-80
2021/12/23 00:09:28;;;;;;;20.77;16.33;;;;;;;-0.67;65.64;95899.81;4977135;28;20208;-79
2021/12/23 00:11:54;;;;;;;19.83;15.90;;;;;;;-0.63;65.86;95896.97;4976290;28;20223;-79
2021/12/23 00:14:21;;;;;;;18.33;14.10;;;;;;;-0.63;65.81;95891.91;4976749;28;20829;-79
2021/12/23 00:16:49;;;;;;;21.13;14.77;;;;;;;-0.64;65.48;95892.81;4977302;28;20200;-80
2021/12/23 00:19:23;;;;;;;19.20;14.40;;;;;;;-0.62;65.41;95891.00;4976947;28;20211;-80
2021/12/23 00:24:36;;;;;;;19.53;15.17;;;;;;;-0.59;65.19;95888.28;4975731;28;20311;-79
2021/12/23 00:27:03;;;;;;;22.50;16.90;;;;;;;-0.56;64.71;95889.78;4974840;28;20203;-79
2021/12/23 00:29:30;;;;;;;19.17;15.63;;;;;;;-0.60;64.54;95886.66;4976470;28;20215;-79
2021/12/23 00:31:56;;;;;;;19.97;15.50;;;;;;;-0.66;65.06;95887.06;4975073;28;20235;-79
2021/12/23 00:34:23;;;;;;;21.90;16.50;;;;;;;-0.87;64.70;95883.41;4974962;28;20759;-79
2021/12/23 00:36:51;;;;;;;20.70;16.10;;;;;;;-0.89;65.09;95885.22;4975392;28;20203;-79
2021/12/23 00:39:18;;;;;;;21.77;15.50;;;;;;;-0.90;65.36;95896.22;4983644;28;20242;-79
2021/12/23 00:41:46;;;;;;;22.37;16.30;;;;;;;-0.89;65.19;95887.75;4996261;28;20230;-79
2021/12/23 00:44:13;;;;;;;20.87;15.70;;;;;;;-0.92;65.17;95888.75;4996315;28;20251;-79
2021/12/23 00:46:40;;;;;;;20.60;14.90;;;;;;;-0.87;64.89;95879.16;4983912;28;20200;-79
2021/12/23 00:49:07;;;;;;;21.33;16.40;;;;;;;-0.90;64.66;95873.50;4976358;28;20574;-79
2021/12/23 00:51:34;;;;;;;20.37;14.97;;;;;;;-0.91;64.48;95871.88;4975809;28;20204;-79
2021/12/23 00:54:04;;;;;;;18.97;14.37;;;;;;;-0.94;64.94;95869.53;4977019;28;20238;-79
2021/12/23 00:56:32;;;;;;;17.40;13.30;;;;;;;-1.01;65.29;95871.66;4976940;28;20216;-80
2021/12/23 00:59:00;;;;;;;17.37;13.33;;;;;;;-1.06;65.17;95864.38;4976752;28;20231;-81
2021/12/23 01:01:27;;;;;;;16.77;12.90;;;;;;;-1.12;65.90;95862.25;4977122;28;20204;-80
2021/12/23 01:03:57;;;;;;;15.87;12.70;;;;;;;-1.07;65.76;95857.72;4976615;28;20224;-80
2021/12/23 01:06:24;;;;;;;17.67;13.13;;;;;;;-1.03;65.94;95854.97;4976254;28;20200;-79
2021/12/23 01:08:50;;;;;;;18.50;13.23;;;;;;;-1.02;65.77;95857.41;4976677;28;20210;-79
2021/12/23 01:11:16;;;;;;;21.73;14.67;;;;;;;-0.98;65.91;95858.84;4976415;28;20221;-78
2021/12/23 01:13:48;;;;;;;21.03;15.83;;;;;;;-0.98;65.17;95858.84;4975481;28;20607;-79
2021/12/23 01:16:36;;;;;;;22.33;15.70;;;;;;;-0.94;65.18;95865.28;4975418;28;20656;-79
2021/12/23 01:19:11;;;;;;;19.87;14.43;;;;;;;-0.95;64.93;95862.88;4975477;28;20196;-79
2021/12/23 01:21:37;;;;;;;20.47;13.57;;;;;;;-0.99;64.20;95861.47;4975785;28;20533;-79
2021/12/23 01:24:04;;;;;;;18.83;14.47;;;;;;;-0.97;64.36;95868.03;4976123;28;20235;-80
2021/12/23 01:26:30;;;;;;;20.27;15.47;;;;;;;-1.08;64.52;95870.44;4976000;28;20204;-80
2021/12/23 01:28:59;;;;;;;20.50;14.37;;;;;;;-1.15;65.01;95870.00;4976121;28;20211;-79
2021/12/23 01:31:29;;;;;;;15.10;12.27;;;;;;;-1.12;64.56;95877.41;4975295;28;20196;-80
2021/12/23 01:33:56;;;;;;;16.57;12.23;;;;;;;-1.11;64.35;95884.06;4975681;28;20320;-79
2021/12/23 01:36:24;;;;;;;17.37;13.00;;;;;;;-1.17;63.62;95874.38;4975830;28;20201;-79
2021/12/23 01:38:50;;;;;;;15.63;10.53;;;;;;;-1.35;63.84;95880.59;4975868;28;20216;-77
2021/12/23 01:41:17;;;;;;;13.70;10.77;;;;;;;-1.44;64.16;95884.50;4956898;29;20246;-80
2021/12/23 01:43:44;;;;;;;14.87;10.97;;;;;;;-1.48;64.15;95872.16;4956684;28;20362;-79
2021/12/23 01:46:10;;;;;;;15.10;11.40;;;;;;;-1.56;64.45;95869.31;4975432;28;20204;-79
2021/12/23 01:48:38;;;;;;;14.70;11.10;;;;;;;-1.61;64.25;95871.31;4976081;28;20201;-78
2021/12/23 01:51:05;;;;;;;15.83;11.43;;;;;;;-1.67;64.17;95879.25;4975238;28;20200;-79
2021/12/23 01:53:32;;;;;;;16.13;11.63;;;;;;;-1.66;64.00;95875.81;4975216;28;20239;-79
2021/12/23 01:56:00;;;;;;;14.57;11.17;;;;;;;-1.65;64.54;95867.34;4975818;28;20203;-79
2021/12/23 01:58:26;;;;;;;14.23;11.50;;;;;;;-1.64;64.16;95871.50;4975663;28;20208;-78
2021/12/23 02:00:53;;;;;;;15.70;10.90;;;;;;;-1.62;64.33;95869.69;4976370;28;20200;-79
2021/12/23 02:03:21;;;;;;;18.10;10.97;;;;;;;-1.66;64.52;95873.31;4978346;28;20641;-79
2021/12/23 02:05:52;;;;;;;14.63;12.03;;;;;;;-1.70;64.71;95862.56;4978627;28;20215;-79
2021/12/23 02:08:18;;;;;;;16.90;11.27;;;;;;;-1.68;64.76;95860.78;4978750;28;20193;-79
2021/12/23 02:10:45;;;;;;;17.70;12.23;;;;;;;-1.66;64.81;95861.50;4978347;28;20197;-79
2021/12/23 02:13:11;;;;;;;17.93;12.33;;;;;;;-1.62;64.88;95852.00;4976775;28;20258;-78
2021/12/23 02:15:38;;;;;;;15.93;11.47;;;;;;;-1.68;64.91;95843.09;4978284;28;20208;-79
2021/12/23 02:18:05;;;;;;;13.23;10.37;;;;;;;-1.70;64.80;95836.53;4978576;28;20208;-79
2021/12/23 02:20:35;;;;;;;14.13;10.90;;;;;;;-1.65;64.72;95834.53;4978098;28;20231;-79
2021/12/23 02:23:02;;;;;;;17.00;12.33;;;;;;;-1.65;64.59;95826.97;4978548;28;20650;-79
2021/12/23 02:25:29;;;;;;;13.30;10.93;;;;;;;-1.64;64.57;95821.81;4977812;28;20207;-79
2021/12/23 02:27:57;;;;;;;12.93;10.47;;;;;;;-1.59;64.63;95824.88;4978389;28;20292;-79
2021/12/23 02:30:29;;;;;;;13.63;11.13;;;;;;;-1.62;64.49;95820.00;4977542;28;20199;-78
2021/12/23 02:32:56;;;;;;;14.60;10.93;;;;;;;-1.61;64.93;95815.78;4976596;28;20235;-78
2021/12/23 02:35:24;;;;;;;12.67;10.33;;;;;;;-1.69;64.92;95810.38;4977711;28;20196;-79
2021/12/23 02:37:55;;;;;;;13.23;10.30;;;;;;;-1.75;64.96;95804.84;4977722;28;20207;-79
2021/12/23 02:40:27;;;;;;;13.40;10.67;;;;;;;-1.73;64.99;95800.47;4978138;28;20727;-79
2021/12/23 02:42:55;;;;;;;13.97;10.83;;;;;;;-1.69;65.53;95796.06;4976955;28;20272;-79
2021/12/23 02:45:21;;;;;;;16.17;11.50;;;;;;;-1.63;65.52;95788.09;4978305;28;20204;-80
2021/12/23 02:47:48;;;;;;;17.13;11.90;;;;;;;-1.59;65.57;95779.44;4977397;28;20784;-78
2021/12/23 02:50:14;;;;;;;15.27;11.07;;;;;;;-1.56;65.42;95784.28;4976950;28;20255;-79
2021/12/23 02:52:40;;;;;;;15.57;11.37;;;;;;;-1.58;65.54;95778.53;4977359;28;20235;-79
2021/12/23 02:55:09;;;;;;;14.30;11.13;;;;;;;-1.57;65.73;95781.88;4977692;28;20224;-78
2021/12/23 02:57:35;;;;;;;15.00;10.67;;;;;;;-1.50;65.89;95778.03;4976737;28;20203;-79
2021/12/23 03:00:03;;;;;;;15.70;12.37;;;;;;;-1.42;65.62;95786.75;4978111;28;20200;-78
2021/12/23 03:02:30;;;;;;;17.53;11.90;;;;;;;-1.39;65.14;95780.69;4977148;28;20234;-79
2021/12/23 03:04:56;;;;;;;16.67;12.30;;;;;;;-1.34;65.15;95778.66;4977360;28;20216;-78
2021/12/23 03:07:22;;;;;;;15.43;11.70;;;;;;;-1.47;65.25;95771.06;4978548;28;20208;-79
2021/12/23 03:09:49;;;;;;;14.77;11.20;;;;;;;-1.48;65.28;95786.31;4977391;28;20232;-78
2021/12/23 03:12:17;;;;;;;17.13;11.13;;;;;;;-1.49;65.00;95794.78;4976582;28;20253;-78
2021/12/23 03:14:43;;;;;;;14.13;11.00;;;;;;;-1.51;65.31;95797.41;4976299;28;20231;-79
2021/12/23 03:17:10;;;;;;;15.10;11.27;;;;;;;-1.52;65.03;95793.25;4977517;28;20655;-79
2021/12/23 03:19:36;;;;;;;14.63;10.60;;;;;;;-1.58;65.24;95778.53;4976677;28;20200;-78
2021/12/23 03:22:03;;;;;;;15.80;10.33;;;;;;;-1.56;65.48;95784.28;4976679;28;20227;-79
2021/12/23 03:24:29;;;;;;;16.23;11.33;;;;;;;-1.54;65.47;95779.94;4977063;28;20207;-79
2021/12/23 03:26:56;;;;;;;14.30;11.47;;;;;;;-1.49;64.94;95774.59;4977771;28;20196;-78
2021/12/23 03:29:24;;;;;;;12.93;10.50;;;;;;;-1.43;65.30;95772.50;4977978;28;20200;-79
2021/12/23 03:31:50;;;;;;;15.13;11.30;;;;;;;-1.51;65.19;95769.63;4976960;28;20364;-78
2021/12/23 03:34:17;;;;;;;14.40;11.30;;;;;;;-1.51;65.41;95771.34;4976151;28;20228;-79
2021/12/23 03:36:43;;;;;;;15.17;12.27;;;;;;;-1.51;65.31;95751.97;4977657;28;20201;-78
2021/12/23 03:39:10;;;;;;;15.03;10.80;;;;;;;-1.46;65.70;95756.72;4976539;28;20212;-78
2021/12/23 03:41:36;;;;;;;15.70;10.90;;;;;;;-1.61;65.56;95747.63;4984218;28;20203;-80
2021/12/23 03:44:04;;;;;;;13.20;10.93;;;;;;;-1.81;66.87;95757.28;4983905;28;20212;-81
2021/12/23 03:46:32;;;;;;;13.63;10.70;;;;;;;-1.71;66.96;95744.06;4984056;28;20204;-79
2021/12/23 03:48:58;;;;;;;15.17;11.27;;;;;;;-1.69;66.95;95742.25;4983142;28;20196;-79
2021/12/23 03:51:25;;;;;;;14.07;10.83;;;;;;;-1.71;66.58;95742.34;4981240;28;20196;-78
2021/12/23 03:53:51;;;;;;;14.57;11.17;;;;;;;-1.71;66.97;95739.81;4983418;28;20227;-77
2021/12/23 03:56:20;;;;;;;14.77;10.60;;;;;;;-1.60;66.74;95732.38;4984498;28;20192;-78
2021/12/23 03:58:47;;;;;;;14.53;10.80;;;;;;;-1.51;66.39;95730.97;4971195;28;20199;-79
2021/12/23 04:01:17;;;;;;;14.33;11.03;;;;;;;-1.48;66.52;95731.56;4981853;28;20215;-80
2021/12/23 04:03:44;;;;;;;14.50;10.77;;;;;;;-1.45;66.11;95733.09;4979209;28;20240;-79
2021/12/23 04:06:11;;;;;;;13.50;10.73;;;;;;;-1.47;66.19;95734.91;4980040;28;20211;-78
2021/12/23 04:08:37;;;;;;;13.50;10.90;;;;;;;-1.41;66.05;95737.84;4979662;28;20212;-79
2021/12/23 04:11:04;;;;;;;15.97;11.00;;;;;;;-1.50;66.29;95732.59;4980357;28;20216;-79
2021/12/23 04:13:30;;;;;;;14.10;11.17;;;;;;;-1.51;66.12;95738.53;4979126;28;20242;-79
2021/12/23 04:15:57;;;;;;;16.17;10.80;;;;;;;-1.52;66.33;95735.19;4979736;28;20203;-79
2021/12/23 04:18:23;;;;;;;14.27;10.90;;;;;;;-1.63;66.38;95727.53;4979192;28;20200;-80
2021/12/23 04:20:55;;;;;;;14.33;10.70;;;;;;;-1.60;66.43;95719.75;4979591;28;20542;-81
2021/12/23 04:23:23;;;;;;;13.80;11.30;;;;;;;-1.57;66.36;95721.28;4978108;28;20231;-79
2021/12/23 04:25:49;;;;;;;14.03;10.80;;;;;;;-1.51;66.40;95715.81;4978328;28;20216;-79
2021/12/23 04:28:16;;;;;;;13.43;10.53;;;;;;;-1.55;66.35;95702.59;4973974;28;20263;-78
2021/12/23 04:30:43;;;;;;;13.60;10.93;;;;;;;-1.52;66.25;95702.38;4975891;28;20200;-78
2021/12/23 04:33:10;;;;;;;16.20;10.93;;;;;;;-1.48;66.03;95703.81;4975007;28;20802;-80
2021/12/23 04:35:37;;;;;;;15.83;10.93;;;;;;;-1.46;65.58;95691.88;4978674;28;20228;-78
2021/12/23 04:38:08;;;;;;;14.70;11.10;;;;;;;-1.48;65.36;95678.56;4978045;28;20192;-80
2021/12/23 04:40:35;;;;;;;15.10;10.87;;;;;;;-1.67;65.53;95680.66;4990669;28;20221;-78
2021/12/23 04:43:02;;;;;;;15.57;11.70;;;;;;;-1.73;65.59;95674.28;4979076;28;20235;-79
2021/12/23 04:45:29;;;;;;;15.03;10.33;;;;;;;-1.75;66.13;95661.00;4979563;28;20196;-78
2021/12/23 04:47:56;;;;;;;14.87;11.30;;;;;;;-1.75;66.30;95668.56;4978391;28;20207;-79
2021/12/23 04:50:22;;;;;;;15.40;12.30;;;;;;;-1.82;65.85;95656.44;4977165;28;20208;-80
2021/12/23 04:52:49;;;;;;;17.53;11.53;;;;;;;-1.93;66.23;95656.34;4977462;28;20731;-79
2021/12/23 04:55:17;;;;;;;15.27;11.40;;;;;;;-1.89;66.07;95650.97;4976598;28;20220;-79
2021/12/23 04:57:44;;;;;;;16.13;11.70;;;;;;;-1.81;65.84;95653.00;4976890;28;20585;-78
2021/12/23 05:00:15;;;;;;;16.23;11.30;;;;;;;-1.88;66.21;95659.34;4976696;28;20614;-78
2021/12/23 05:02:42;;;;;;;14.73;11.00;;;;;;;-1.85;65.97;95662.47;4976965;28;20243;-79
2021/12/23 05:05:09;;;;;;;16.17;11.97;;;;;;;-1.86;66.03;95649.97;4977821;28;20227;-79
2021/12/23 05:07:36;;;;;;;15.27;11.47;;;;;;;-1.82;65.94;95662.28;4976820;28;20618;-80
2021/12/23 05:10:04;;;;;;;19.50;13.17;;;;;;;-1.83;65.13;95670.78;4977246;28;20259;-78
2021/12/23 05:12:42;;;;;;;15.57;12.13;;;;;;;-1.97;64.74;95672.56;4976836;28;20236;-79
2021/12/23 05:15:09;;;;;;;14.33;10.23;;;;;;;-1.71;98.46;95665.81;4976822;28;20226;-78
2021/12/23 05:17:35;;;;;;;18.83;12.77;;;;;;;-1.81;67.31;95663.09;4976041;28;20208;-80
2021/12/23 05:20:02;;;;;;;18.30;12.17;;;;;;;-1.81;66.66;95673.19;4976852;28;20204;-79
2021/12/23 05:22:28;;;;;;;13.77;10.93;;;;;;;-1.96;66.43;95676.72;4974938;28;20228;-79
2021/12/23 05:24:55;;;;;;;14.93;11.90;;;;;;;-2.19;66.30;95666.38;4975434;28;20223;-79
2021/12/23 05:27:21;;;;;;;15.73;11.57;;;;;;;-2.27;66.82;95667.75;4976005;28;20196;-78
2021/12/23 05:29:49;;;;;;;17.43;12.67;;;;;;;-2.19;66.78;95675.66;4975696;28;20255;-78
2021/12/23 05:32:15;;;;;;;15.13;12.07;;;;;;;-2.19;67.05;95673.94;4973841;28;20228;-78
2021/12/23 05:34:42;;;;;;;16.40;12.33;;;;;;;-2.17;66.75;95678.88;4974555;28;20327;-78
2021/12/23 05:37:08;;;;;;;16.97;12.83;;;;;;;-2.15;67.18;95674.56;4979816;28;20193;-79
2021/12/23 05:39:35;;;;;;;17.77;13.53;;;;;;;-2.13;67.27;95678.59;4981555;28;20196;-80
2021/12/23 05:42:04;;;;;;;18.13;13.60;;;;;;;-2.18;68.49;95673.03;4979338;28;20282;-80
2021/12/23 05:44:31;;;;;;;27.47;14.23;;;;;;;-2.37;69.01;95674.28;4962465;28;20224;-79
2021/12/23 05:47:06;;;;;;;19.87;14.23;;;;;;;-2.65;70.71;95680.19;4967597;28;20719;-78
2021/12/23 05:49:33;;;;;;;30.20;15.43;;;;;;;-2.76;71.71;95673.31;4974303;28;20204;-78
2021/12/23 05:51:59;;;;;;;20.30;14.43;;;;;;;-2.73;71.58;95677.34;4974125;28;20235;-79
2021/12/23 05:54:27;;;;;;;20.57;13.80;;;;;;;-2.64;71.32;95671.75;4976694;28;20232;-79
2021/12/23 05:56:53;;;;;;;21.17;14.80;;;;;;;-2.56;71.17;95667.06;4976413;28;20207;-78
2021/12/23 05:59:20;;;;;;;63.97;17.67;;;;;;;-2.67;71.99;95664.38;4978467;28;20214;-79
2021/12/23 06:01:46;;;;;;;55.07;16.93;;;;;;;-2.69;72.40;95658.63;4972687;28;20234;-78
2021/12/23 06:04:14;;;;;;;24.37;16.47;;;;;;;-2.67;73.21;95655.09;4971699;28;20227;-78
2021/12/23 06:06:41;;;;;;;21.10;14.97;;;;;;;-2.64;73.75;95654.09;4979145;28;20208;-78
2021/12/23 06:09:07;;;;;;;24.07;14.97;;;;;;;-2.64;73.19;95657.44;4979372;28;20722;-79
2021/12/23 06:11:34;;;;;;;21.40;13.80;;;;;;;-2.72;73.30;95657.09;4978507;28;20192;-79
2021/12/23 06:14:00;;;;;;;37.83;14.80;;;;;;;-2.71;73.03;95650.34;4978084;28;20267;-78
2021/12/23 06:16:27;;;;;;;22.03;15.17;;;;;;;-2.62;72.34;95665.72;4978759;28;20207;-80
2021/12/23 06:18:53;;;;;;;22.33;15.07;;;;;;;-2.58;72.01;95667.13;4979409;28;20590;-80
2021/12/23 06:21:26;;;;;;;21.30;15.23;;;;;;;-2.57;71.38;95663.72;4978980;28;20207;-80
2021/12/23 06:23:53;;;;;;;21.93;15.20;;;;;;;-2.56;70.62;95657.78;4977212;28;20275;-78
2021/12/23 06:26:19;;;;;;;19.47;14.33;;;;;;;-2.51;70.61;95668.38;4977908;28;20211;-79
2021/12/23 06:28:46;;;;;;;20.50;14.53;;;;;;;-2.47;69.65;95654.66;4982427;28;20589;-79
2021/12/23 06:31:12;;;;;;;21.30;14.23;;;;;;;-2.51;69.60;95665.88;4988508;28;20200;-80
2021/12/23 06:33:39;;;;;;;17.20;12.40;;;;;;;-2.52;69.53;95659.22;4976663;28;20236;-79
2021/12/23 06:36:06;;;;;;;15.27;11.63;;;;;;;-2.50;69.28;95677.53;4976250;28;20743;-78
2021/12/23 06:38:35;;;;;;;15.50;11.77;;;;;;;-2.53;69.57;95675.22;4979722;28;20242;-80
2021/12/23 06:41:01;;;;;;;17.20;13.17;;;;;;;-2.50;69.32;95677.53;4977226;28;20231;-80
2021/12/23 06:43:28;;;;;;;20.03;14.40;;;;;;;-2.51;69.33;95677.66;4976183;28;20707;-80
2021/12/23 06:45:54;;;;;;;19.63;14.07;;;;;;;-2.50;69.31;95669.16;4976336;28;20541;-81
2021/12/23 06:48:21;;;;;;;21.10;14.20;;;;;;;-2.47;69.51;95672.31;4975044;28;20200;-82
2021/12/23 06:50:54;;;;;;;19.27;14.10;;;;;;;-2.45;69.47;95673.03;4975946;28;20207;-79
2021/12/23 06:53:20;;;;;;;19.90;13.73;;;;;;;-2.53;71.06;95676.94;4976236;28;20231;-81
2021/12/23 06:55:50;;;;;;;20.50;14.50;;;;;;;-2.51;70.33;95668.38;4977425;28;20226;-80
2021/12/23 06:58:16;;;;;;;22.97;15.50;;;;;;;-2.50;69.55;95664.94;4978635;28;20201;-80
2021/12/23 07:00:43;;;;;;;19.93;14.23;;;;;;;-2.50;69.01;95659.91;4976747;28;20207;-80
2021/12/23 07:03:09;;;;;;;18.83;13.80;;;;;;;-2.57;69.79;95660.38;4975325;28;20228;-81
2021/12/23 07:05:36;;;;;;;19.90;13.50;;;;;;;-2.56;69.22;95662.00;4977327;28;20216;-80
2021/12/23 07:08:09;;;;;;;20.23;14.60;;;;;;;-2.52;69.21;95664.25;4976868;28;20611;-80
2021/12/23 07:10:35;;;;;;;18.87;14.27;;;;;;;-2.43;69.38;95662.84;4977948;28;20204;-80
2021/12/23 07:13:04;;;;;;;20.50;13.40;;;;;;;-2.32;69.00;95664.72;4975925;28;20219;-80
2021/12/23 07:15:32;;;;;;;18.27;13.80;;;;;;;-2.37;68.99;95659.16;4977051;28;20261;-79
2021/12/23 07:18:00;;;;;;;18.70;13.67;;;;;;;-2.29;68.41;95661.97;4976820;28;20271;-79
2021/12/23 07:20:28;;;;;;;16.40;12.87;;;;;;;-2.22;67.82;95675.81;4977545;28;20205;-79
2021/12/23 07:22:55;;;;;;;16.70;12.60;;;;;;;-2.21;67.49;95673.22;4976216;28;20311;-79
2021/12/23 07:25:21;;;;;;;21.77;14.20;;;;;;;-2.20;67.56;95674.03;4977523;28;20224;-78
2021/12/23 07:27:48;;;;;;;15.73;12.30;;;;;;;-2.17;67.42;95678.88;4974685;28;20200;-80
2021/12/23 07:30:19;;;;;;;18.27;12.47;;;;;;;-2.16;66.93;95678.78;4976334;28;20235;-80
2021/12/23 07:32:46;;;;;;;17.57;12.27;;;;;;;-2.15;66.72;95677.06;4974737;28;20255;-80
2021/12/23 07:35:16;;;;;;;17.83;12.07;;;;;;;-2.12;67.08;95681.94;4971164;28;20580;-79
2021/12/23 07:37:43;;;;;;;16.63;12.67;;;;;;;-2.14;67.57;95676.97;4976789;28;20204;-79
2021/12/23 07:40:13;;;;;;;16.30;12.63;;;;;;;-2.03;68.02;95683.84;4976484;28;20672;-79
2021/12/23 07:42:44;;;;;;;20.10;13.40;;;;;;;-1.97;67.87;95688.50;4975872;28;20231;-79
2021/12/23 07:45:10;;;;;;;16.17;12.73;;;;;;;-1.82;67.38;95700.13;4972137;28;20224;-79
2021/12/23 07:47:38;;;;;;;17.60;13.13;;;;;;;-1.68;67.83;95708.53;4974945;28;20208;-79
2021/12/23 07:50:05;;;;;;;18.53;13.47;;;;;;;-1.56;67.04;95701.00;4976530;28;20208;-79
2021/12/23 07:52:33;;;;;;;19.50;13.67;;;;;;;-1.40;66.18;95688.97;4973341;28;20294;-78
2021/12/23 07:54:59;;;;;;;17.57;14.00;;;;;;;-1.25;66.09;95681.28;4974585;28;20228;-80
2021/12/23 07:57:26;;;;;;;18.57;13.40;;;;;;;-1.21;66.22;95678.47;4975380;28;20883;-79
2021/12/23 07:59:52;;;;;;;18.43;13.80;;;;;;;-1.12;66.31;95665.19;4974723;28;20215;-79
2021/12/23 08:02:18;;;;;;;19.27;13.43;;;;;;;-1.06;66.65;95674.09;4974298;28;20227;-78
2021/12/23 08:04:46;;;;;;;18.10;13.50;;;;;;;-0.98;66.57;95676.91;4973457;28;20227;-78
2021/12/23 08:07:13;;;;;;;19.43;13.63;;;;;;;-0.86;66.99;95670.22;4973760;28;20698;-78
2021/12/23 08:09:39;;;;;;;16.67;12.63;;;;;;;-0.74;66.77;95666.81;4974708;28;20295;-80
2021/12/23 08:12:08;;;;;;;17.67;13.50;;;;;;;-0.70;67.00;95665.72;4972874;28;20747;-79
2021/12/23 08:14:35;;;;;;;17.30;12.93;;;;;;;-0.55;67.37;95662.13;4972016;28;20227;-78
2021/12/23 08:17:01;;;;;;;17.83;13.20;;;;;;;-0.48;67.23;95667.56;4972277;28;20204;-79
2021/12/23 08:19:27;;;;;;;18.83;14.13;;;;;;;-0.44;67.00;95672.31;4972750;28;20215;-79
2021/12/23 08:21:55;;;;;;;18.63;13.50;;;;;;;-0.38;67.37;95663.47;4971894;28;20239;-79
2021/12/23 08:24:22;;;;;;;18.03;13.83;;;;;;;-0.32;66.97;95650.38;4973024;28;20642;-79
2021/12/23 08:26:52;;;;;;;19.23;13.83;;;;;;;-0.28;67.54;95641.66;4974204;28;20200;-79
2021/12/23 08:29:20;;;;;;;19.00;13.43;;;;;;;-0.27;67.28;95647.53;4975344;28;20227;-80
2021/12/23 08:31:47;;;;;;;16.17;13.23;;;;;;;-0.16;67.56;95639.97;4974331;28;20311;-79
2021/12/23 08:34:14;;;;;;;19.17;13.90;;;;;;;0.00;67.01;95643.81;4974130;28;20286;-80
2021/12/23 08:36:40;;;;;;;16.07;12.33;;;;;;;0.04;66.96;95639.34;4973879;28;20224;-80
2021/12/23 08:39:08;;;;;;;16.17;12.97;;;;;;;0.17;66.64;95632.50;4974634;28;20266;-80
2021/12/23 08:41:35;;;;;;;18.07;12.57;;;;;;;0.17;66.40;95627.44;4993303;28;20682;-80
2021/12/23 08:44:01;;;;;;;18.37;12.90;;;;;;;-0.05;66.49;95642.56;4994678;28;20215;-80
2021/12/23 08:46:27;;;;;;;17.70;13.37;;;;;;;-0.06;67.25;95641.75;4985483;28;20192;-80
2021/12/23 08:48:54;;;;;;;16.03;12.53;;;;;;;-0.02;67.35;95634.75;4973744;28;20203;-80
2021/12/23 08:51:20;;;;;;;16.77;12.67;;;;;;;0.03;67.25;95639.47;4972899;28;20203;-79
2021/12/23 08:53:47;;;;;;;15.00;12.07;;;;;;;0.13;67.31;95641.22;4973860;28;20219;-79
2021/12/23 08:56:15;;;;;;;15.87;11.80;;;;;;;0.10;66.83;95633.84;4972662;28;20246;-80
2021/12/23 08:58:42;;;;;;;16.27;12.00;;;;;;;0.14;66.64;95625.13;4972473;28;20211;-80
2021/12/23 09:01:09;;;;;;;14.60;12.17;;;;;;;0.23;66.59;95623.63;4973319;28;20204;-79
2021/12/23 09:03:36;;;;;;;20.57;12.60;;;;;;;0.41;66.67;95627.34;4972927;28;20236;-80
2021/12/23 09:06:04;;;;;;;16.20;12.50;;;;;;;0.27;65.96;95617.44;4974100;28;20223;-80
2021/12/23 09:08:32;;;;;;;17.43;11.93;;;;;;;0.13;66.32;95618.44;4974796;28;20307;-80
2021/12/23 09:11:00;;;;;;;14.53;12.27;;;;;;;0.16;67.15;95610.63;4976639;28;20208;-80
2021/12/23 09:13:29;;;;;;;16.30;11.83;;;;;;;0.14;66.76;95611.66;4977888;28;20224;-79
2021/12/23 09:15:56;;;;;;;17.00;11.67;;;;;;;0.21;66.59;95610.28;4980435;28;20251;-78
2021/12/23 09:18:23;;;;;;;17.63;12.00;;;;;;;0.22;66.24;95600.03;4978238;28;20226;-79
2021/12/23 09:20:51;;;;;;;14.23;11.50;;;;;;;0.32;66.38;95593.41;4978337;28;20196;-80
2021/12/23 09:23:18;;;;;;;16.13;11.83;;;;;;;0.27;65.96;95590.38;4976693;28;20231;-79
2021/12/23 09:25:46;;;;;;;14.27;11.07;;;;;;;0.28;66.33;95597.06;4977415;28;20219;-80
2021/12/23 09:28:25;;;;;;;17.20;11.83;;;;;;;0.31;66.48;95599.38;4977892;28;20200;-79
2021/12/23 09:33:56;;;;;;;13.33;10.87;;;;;;;0.40;65.30;95609.72;4880591;29;20249;-79
2021/12/23 09:36:22;;;;;;;14.03;11.10;;;;;;;0.46;65.68;95607.56;4878346;29;20227;-80
2021/12/23 09:38:49;;;;;;;12.80;10.23;;;;;;;0.54;65.36;95599.41;4921607;28;20207;-79
2021/12/23 09:41:18;;;;;;;13.73;10.50;;;;;;;0.65;65.06;95606.97;4977150;28;20211;-80
2021/12/23 09:43:45;;;;;;;13.67;10.70;;;;;;;0.72;64.81;95599.72;4976728;28;20303;-79
2021/12/23 09:46:16;;;;;;;14.50;9.93;;;;;;;0.90;64.21;95599.16;4976968;28;20207;-79
2021/12/23 09:48:45;;;;;;;15.13;10.50;;;;;;;1.00;63.72;95600.03;4977168;28;20208;-78
2021/12/23 09:51:16;;;;;;;13.97;10.60;;;;;;;1.04;63.43;95603.16;4977029;28;20223;-79
2021/12/23 09:53:45;;;;;;;13.27;10.40;;;;;;;1.13;63.69;95591.50;4975493;28;20232;-79
2021/12/23 09:56:12;;;;;;;18.30;10.97;;;;;;;1.22;63.27;95593.31;4976775;28;20224;-79
2021/12/23 09:58:39;;;;;;;13.43;9.63;;;;;;;1.27;63.21;95581.91;4976981;28;20200;-79
2021/12/23 10:01:07;;;;;;;13.83;10.57;;;;;;;1.43;63.12;95576.41;4958168;29;20211;-79
2021/12/23 10:03:37;;;;;;;13.33;9.93;;;;;;;1.65;63.12;95570.44;4968214;28;20220;-78
2021/12/23 10:06:03;;;;;;;13.40;9.80;;;;;;;1.75;62.52;95568.78;4976016;28;20200;-78
2021/12/23 10:08:30;;;;;;;14.10;10.83;;;;;;;1.77;62.47;95559.31;4975879;28;20200;-79
2021/12/23 10:11:01;;;;;;;14.47;10.07;;;;;;;1.76;61.86;95551.81;4975057;28;20688;-79
2021/12/23 10:30:26;;;;;;;10.57;8.57;;;;;;;2.27;62.17;95539.16;4988579;28;20277;-78
2021/12/23 10:38:36;;;;;;;9.70;8.63;;;;;;;2.46;61.47;95520.66;4946108;28;20262;-79
2021/12/23 10:41:07;;;;;;;13.40;8.30;;;;;;;2.57;61.25;95521.34;4974789;28;20207;-79
2021/12/23 10:43:37;;;;;;;11.23;8.53;;;;;;;2.75;61.47;95508.81;4980816;28;20224;-79
2021/12/23 10:46:07;;;;;;;13.60;8.57;;;;;;;2.87;60.89;95496.81;4993704;28;20204;-79
2021/12/23 10:48:45;;;;;;;12.73;8.27;;;;;;;3.03;60.43;95495.38;4995861;28;20203;-79
2021/12/23 10:51:17;;;;;;;13.23;7.93;;;;;;;3.21;60.43;95490.44;4985488;28;20652;-78
2021/12/23 10:53:52;;;;;;;9.40;7.30;;;;;;;3.45;59.23;95482.38;4974433;28;20242;-79
2021/12/23 10:59:10;;;;;;;10.30;7.73;;;;;;;3.43;57.85;95456.28;4968644;28;20215;-80
2021/12/23 11:01:58;;;;;;;10.00;7.33;;;;;;;3.38;58.75;95454.13;4963923;28;20683;-79
2021/12/23 11:04:25;;;;;;;14.47;7.83;;;;;;;3.39;58.84;95447.28;4974478;28;20280;-78
2021/12/23 11:07:10;;;;;;;12.87;7.10;;;;;;;3.26;58.99;95444.25;4973549;28;20201;-80
2021/12/23 11:09:42;;;;;;;11.77;7.57;;;;;;;3.22;59.16;95430.19;4975171;28;20311;-80
2021/12/23 11:38:21;;;;;;;13.00;7.13;;;;;;;3.63;60.01;95408.69;4917827;29;20208;-80
2021/12/23 11:40:53;;;;;;;9.43;7.17;;;;;;;3.62;60.08;95405.34;4961948;28;20204;-80
2021/12/23 11:43:31;;;;;;;8.53;6.47;;;;;;;3.67;59.90;95398.06;4974102;28;20235;-80
2021/12/23 11:45:58;;;;;;;10.37;7.00;;;;;;;3.65;60.25;95397.44;4973765;28;20208;-80
2021/12/23 11:48:24;;;;;;;9.90;7.13;;;;;;;3.69;60.26;95396.19;4976151;28;20911;-80
2021/12/23 11:51:01;;;;;;;11.60;7.27;;;;;;;3.75;60.24;95398.19;4994054;28;20203;-80
2021/12/23 11:53:28;;;;;;;8.20;7.00;;;;;;;3.82;60.52;95395.88;4973118;28;20235;-80
2021/12/23 11:56:06;;;;;;;10.03;7.03;;;;;;;3.85;60.80;95402.44;5130070;27;20538;-78
2021/12/23 11:58:33;;;;;;;12.27;7.40;;;;;;;3.79;61.46;95394.41;5131141;27;20203;-79
2021/12/23 12:01:06;;;;;;;8.67;7.53;;;;;;;3.83;61.25;95400.03;5130246;27;20214;-79
2021/12/23 12:03:38;;;;;;;13.00;7.47;;;;;;;3.89;61.58;95396.13;5098464;27;20242;-79
2021/12/23 12:06:16;;;;;;;11.13;8.20;;;;;;;3.94;61.42;95389.66;5088848;28;20204;-79
2021/12/23 12:08:42;;;;;;;8.47;7.30;;;;;;;3.97;61.36;95375.84;5088717;28;20227;-79
2021/12/23 12:11:20;;;;;;;7.97;6.57;;;;;;;3.97;61.59;95375.84;5089513;28;20200;-79
2021/12/23 12:13:58;;;;;;;10.27;7.47;;;;;;;4.00;61.64;95367.94;5088446;28;20263;-78
2021/12/23 12:16:36;;;;;;;9.67;6.93;;;;;;;3.98;61.79;95370.63;5077064;28;20211;-78
2021/12/23 12:19:06;;;;;;;8.07;7.10;;;;;;;3.99;62.36;95364.59;5089827;28;20200;-79
2021/12/23 12:21:36;;;;;;;10.00;7.30;;;;;;;4.01;62.80;95372.09;5089908;28;20663;-79